Time;durP1;ratioP1;P1;durP2;ratioP2;P2;SDS_P1;SDS_P2;PMS_P1;PMS_P2;Temp;Humidity;BMP_temperature;BMP_pressure;BME280_temperature;BME280_humidity;BME280_pressure;Samples;Min_cycle;Max_cycle;Signal;HPM_P1;HPM_P2
2023/04/11 00:01:43;;;;;;;;;1.33;1.00;;;;;23.06;40.75;101402.59;5079110;28;45494;-74
2023/04/11 00:04:10;;;;;;;;;0.00;0.00;;;;;22.97;40.36;101395.69;5079193;28;45375;-76
2023/04/11 00:06:35;;;;;;;;;2.00;0.00;;;;;23.05;40.46;101410.75;5079057;28;45380;-75
2023/04/11 00:09:01;;;;;;;;;0.67;0.00;;;;;23.03;40.53;101418.88;5078537;28;46231;-75
2023/04/11 00:11:26;;;;;;;;;3.67;0.67;;;;;23.03;40.39;101413.56;5079059;28;45290;-75
2023/04/11 00:13:57;;;;;;;;;0.33;0.00;;;;;22.96;40.36;101397.53;5078992;28;45288;-75
2023/04/11 00:16:23;;;;;;;;;1.00;0.00;;;;;23.04;40.38;101407.28;5079126;28;45398;-76
2023/04/11 00:18:49;;;;;;;;;0.00;0.00;;;;;23.06;39.84;101412.41;5078814;28;46253;-74
2023/04/11 00:21:15;;;;;;;;;0.00;0.00;;;;;23.06;40.52;101399.13;5078798;28;45353;-75
2023/04/11 00:23:40;;;;;;;;;0.00;0.00;;;;;22.96;40.29;101394.88;5078512;28;45499;-74
2023/04/11 00:26:06;;;;;;;;;0.00;0.00;;;;;23.07;39.82;101406.94;5079036;28;45296;-76
2023/04/11 00:28:31;;;;;;;;;0.67;0.33;;;;;23.08;39.89;101418.38;5078867;28;46018;-76
2023/04/11 00:30:57;;;;;;;;;0.00;0.00;;;;;23.09;39.96;101413.88;5078707;28;45442;-75
2023/04/11 00:33:22;;;;;;;;;0.00;0.00;;;;;23.11;39.97;101403.94;5078383;28;45376;-75
2023/04/11 00:35:47;;;;;;;;;2.00;0.00;;;;;23.04;40.05;101401.13;5078836;28;45383;-75
2023/04/11 00:38:13;;;;;;;;;0.00;0.00;;;;;23.10;39.74;101416.38;5077998;28;46030;-75
2023/04/11 00:40:38;;;;;;;;;0.00;0.00;;;;;23.11;40.02;101417.22;5078610;28;45399;-76
2023/04/11 00:43:03;;;;;;;;;0.00;0.00;;;;;23.10;39.88;101419.03;5078712;28;45699;-75
2023/04/11 00:45:29;;;;;;;;;1.67;0.00;;;;;22.96;39.90;101392.22;5078563;28;45471;-74
2023/04/11 00:47:54;;;;;;;;;0.00;0.00;;;;;22.93;39.76;101389.06;5078503;28;45348;-75
2023/04/11 00:50:21;;;;;;;;;1.67;0.67;;;;;23.06;40.12;101415.88;5078568;28;45325;-76
2023/04/11 00:52:49;;;;;;;;;2.33;1.00;;;;;22.82;39.81;101388.44;5078136;28;45380;-75
2023/04/11 00:55:15;;;;;;;;;0.00;0.00;;;;;23.03;39.80;101418.06;5078370;28;45503;-75
2023/04/11 00:57:41;;;;;;;;;0.67;0.67;;;;;23.04;39.76;101436.47;5078074;28;46509;-75
2023/04/11 01:00:10;;;;;;;;;1.33;0.00;;;;;23.03;39.91;101426.84;5078327;28;45389;-75
2023/04/11 01:02:41;;;;;;;;;1.00;0.00;;;;;23.02;39.85;101427.84;5078393;28;45359;-75
2023/04/11 01:05:09;;;;;;;;;1.00;0.00;;;;;22.94;40.06;101425.22;5078274;28;45387;-76
2023/04/11 01:07:35;;;;;;;;;0.00;0.00;;;;;22.91;39.91;101417.59;5077374;28;45926;-75
2023/04/11 01:10:02;;;;;;;;;0.33;0.00;;;;;22.94;39.99;101417.28;5078029;28;45317;-76
2023/04/11 01:12:29;;;;;;;;;0.00;0.00;;;;;23.00;39.93;101434.34;5078038;27;45384;-75
2023/04/11 01:14:55;;;;;;;;;0.33;0.33;;;;;23.00;39.94;101424.56;5077892;28;45535;-75
2023/04/11 01:17:21;;;;;;;;;1.00;1.00;;;;;23.00;40.11;101453.75;5059670;28;47275;-76
2023/04/11 01:19:46;;;;;;;;;1.00;1.00;;;;;23.00;39.99;101459.06;5077999;28;45303;-75
2023/04/11 01:22:16;;;;;;;;;0.33;0.33;;;;;23.01;39.49;101454.53;5077609;28;45364;-75
2023/04/11 01:24:42;;;;;;;;;0.00;0.00;;;;;23.01;39.81;101454.53;5077913;28;45431;-75
2023/04/11 01:27:09;;;;;;;;;0.00;0.00;;;;;23.02;39.41;101442.94;5077794;28;46291;-75
2023/04/11 01:29:34;;;;;;;;;0.33;0.33;;;;;23.03;40.08;101447.25;5077469;28;45465;-76
2023/04/11 01:32:00;;;;;;;;;0.67;0.00;;;;;23.01;39.56;101452.72;5077638;28;45485;-75
2023/04/11 01:34:27;;;;;;;;;0.00;0.00;;;;;22.89;39.86;101431.06;5077480;28;45431;-75
2023/04/11 01:36:53;;;;;;;;;0.00;0.00;;;;;23.01;39.71;101436.81;5077381;28;45384;-74
2023/04/11 01:39:18;;;;;;;;;0.33;0.33;;;;;22.96;39.95;101439.16;5077720;28;45383;-75
2023/04/11 01:41:44;;;;;;;;;3.00;0.00;;;;;22.88;39.25;101421.44;5059511;28;45424;-75
2023/04/11 01:44:10;;;;;;;;;2.00;2.00;;;;;23.00;39.87;101442.28;5077550;28;45356;-76
2023/04/11 01:46:36;;;;;;;;;1.00;0.00;;;;;22.95;39.31;101440.16;5077464;28;46606;-75
2023/04/11 01:49:02;;;;;;;;;0.00;0.00;;;;;23.01;39.81;101443.94;5077067;28;45373;-75
2023/04/11 01:51:27;;;;;;;;;2.00;1.00;;;;;22.94;39.40;101433.19;5077543;28;45403;-75
2023/04/11 01:53:53;;;;;;;;;1.00;1.00;;;;;23.01;39.25;101436.81;5077333;28;45463;-75
2023/04/11 01:56:19;;;;;;;;;1.00;1.00;;;;;22.99;38.91;101449.41;5077431;28;46069;-75
2023/04/11 01:58:44;;;;;;;;;0.00;0.00;;;;;23.03;39.41;101455.22;5077214;28;45454;-75
2023/04/11 02:01:12;;;;;;;;;0.00;0.00;;;;;23.03;39.26;101450.72;5077308;28;45318;-75
2023/04/11 02:03:38;;;;;;;;;0.33;0.33;;;;;23.03;39.41;101458.69;5076916;28;45423;-75
2023/04/11 02:06:03;;;;;;;;;0.00;0.00;;;;;22.95;39.29;101442.81;5077085;28;45237;-76
2023/04/11 02:08:29;;;;;;;;;0.00;0.00;;;;;23.04;39.45;101454.22;5077301;28;45401;-74
2023/04/11 02:10:54;;;;;;;;;0.00;0.00;;;;;23.03;39.18;101455.22;5077347;28;45233;-76
2023/04/11 02:13:20;;;;;;;;;0.00;0.00;;;;;23.01;39.52;101457.19;5077185;28;45300;-75
2023/04/11 02:15:45;;;;;;;;;0.33;0.33;;;;;23.00;38.91;101459.06;5076980;28;45939;-75
2023/04/11 02:18:10;;;;;;;;;1.00;0.00;;;;;22.93;38.92;101458.06;5076746;28;45265;-75
2023/04/11 02:20:41;;;;;;;;;0.00;0.00;;;;;22.96;39.51;101466.50;5076338;28;45360;-75
2023/04/11 02:23:07;;;;;;;;;0.00;0.00;;;;;22.68;39.71;101419.16;5077071;28;45453;-74
2023/04/11 02:25:32;;;;;;;;;0.00;0.00;;;;;22.92;39.45;101459.06;5076821;28;45998;-76
2023/04/11 02:27:58;;;;;;;;;1.33;0.00;;;;;22.95;39.49;101464.84;5077081;28;45455;-75
2023/04/11 02:30:23;;;;;;;;;0.33;0.33;;;;;22.99;39.33;101462.69;5058803;28;45361;-75
2023/04/11 02:32:49;;;;;;;;;0.00;0.00;;;;;23.00;39.19;101466.19;5076348;28;45189;-75
2023/04/11 02:35:15;;;;;;;;;1.00;1.00;;;;;23.00;39.63;101469.66;5076661;28;46407;-75
2023/04/11 02:37:41;;;;;;;;;1.00;1.00;;;;;22.70;39.07;101424.31;5076736;28;45615;-75
2023/04/11 02:40:07;;;;;;;;;0.67;0.00;;;;;23.00;39.55;101468.84;5076648;28;45498;-75
2023/04/11 02:42:33;;;;;;;;;2.00;0.00;;;;;22.99;39.11;101462.69;5076813;28;45391;-75
2023/04/11 02:44:58;;;;;;;;;0.00;0.00;;;;;22.99;39.00;101472.47;5076456;28;47022;-74
2023/04/11 02:47:24;;;;;;;;;1.00;0.00;;;;;22.98;38.92;101460.22;5076241;28;45367;-76
2023/04/11 02:49:49;;;;;;;;;0.00;0.00;;;;;22.88;39.46;101460.41;5076647;28;45563;-76
2023/04/11 02:52:14;;;;;;;;;0.33;0.00;;;;;22.90;39.24;101466.38;5076602;28;45353;-75
2023/04/11 02:54:40;;;;;;;;;0.00;0.00;;;;;22.95;39.06;101483.41;5076523;28;45457;-76
2023/04/11 02:57:05;;;;;;;;;1.00;0.00;;;;;22.96;39.57;101484.25;5076495;28;45479;-75
2023/04/11 02:59:31;;;;;;;;;2.33;0.00;;;;;22.95;38.90;101486.06;5076645;28;45333;-76
2023/04/11 03:01:58;;;;;;;;;1.33;0.00;;;;;22.95;39.32;101477.31;5076184;28;45410;-75
2023/04/11 03:04:23;;;;;;;;;4.00;0.00;;;;;22.90;39.10;101477.81;5076210;28;46215;-75
2023/04/11 03:06:48;;;;;;;;;0.00;0.00;;;;;22.91;38.91;101481.28;5076226;28;45162;-75
2023/04/11 03:09:14;;;;;;;;;1.33;1.00;;;;;22.94;39.42;101486.25;5076503;28;45285;-75
2023/04/11 03:11:39;;;;;;;;;0.00;0.00;;;;;22.93;38.91;101482.78;5076408;28;45479;-75
2023/04/11 03:14:05;;;;;;;;;0.00;0.00;;;;;22.94;39.44;101484.44;5076002;28;46991;-74
2023/04/11 03:16:30;;;;;;;;;0.00;0.00;;;;;22.86;39.24;101468.53;5075877;28;45292;-75
2023/04/11 03:18:57;;;;;;;;;0.00;0.00;;;;;22.96;39.07;101481.59;5076280;28;45664;-75
2023/04/11 03:21:22;;;;;;;;;0.00;0.00;;;;;22.88;39.01;101466.53;5076263;28;45430;-75
2023/04/11 03:23:48;;;;;;;;;0.00;0.00;;;;;22.93;39.15;101476.63;5075802;28;46395;-75
2023/04/11 03:26:13;;;;;;;;;0.00;0.00;;;;;22.91;38.51;101484.78;5075983;28;45463;-74
2023/04/11 03:28:39;;;;;;;;;0.00;0.00;;;;;22.90;39.16;101477.00;5076255;28;45383;-75
2023/04/11 03:31:05;;;;;;;;;0.00;0.00;;;;;22.99;39.07;101491.88;5075527;28;45393;-75
2023/04/11 03:33:30;;;;;;;;;0.00;0.00;;;;;22.99;38.84;101489.22;5075629;28;46306;-75
2023/04/11 03:35:55;;;;;;;;;0.00;0.00;;;;;22.93;38.76;101489.91;5075975;28;45434;-76
2023/04/11 03:38:21;;;;;;;;;0.00;0.00;;;;;22.99;38.73;101502.50;5075876;28;45695;-75
2023/04/11 03:40:46;;;;;;;;;1.33;1.00;;;;;22.90;39.04;101495.56;5075892;28;45403;-75
2023/04/11 03:43:12;;;;;;;;;1.00;0.00;;;;;22.99;39.20;101504.31;5075550;28;46444;-75
2023/04/11 03:45:37;;;;;;;;;2.00;0.00;;;;;22.95;38.99;101506.50;5075424;28;45500;-75
2023/04/11 03:48:03;;;;;;;;;0.33;0.33;;;;;22.88;38.85;101487.75;5057851;28;45425;-75
2023/04/11 03:50:28;;;;;;;;;0.00;0.00;;;;;22.89;39.09;101481.47;5075853;28;45485;-75
2023/04/11 03:52:54;;;;;;;;;0.00;0.00;;;;;22.95;38.89;101494.03;5075567;28;46218;-76
2023/04/11 03:55:20;;;;;;;;;1.00;0.00;;;;;22.95;38.96;101493.22;5075646;28;45265;-76
2023/04/11 03:57:45;;;;;;;;;1.00;0.00;;;;;22.93;38.63;101485.44;5075648;28;45308;-75
2023/04/11 04:00:11;;;;;;;;;0.00;0.00;;;;;22.94;38.77;101495.06;5057103;28;45415;-75
2023/04/11 04:02:36;;;;;;;;;3.00;0.00;;;;;22.93;38.67;101493.38;5075461;28;45352;-76
2023/04/11 04:05:02;;;;;;;;;0.00;0.00;;;;;22.82;38.63;101472.53;5075434;28;45413;-75
2023/04/11 04:07:28;;;;;;;;;0.33;0.00;;;;;22.89;39.12;101488.59;5075607;28;45362;-76
2023/04/11 04:09:53;;;;;;;;;0.67;0.67;;;;;22.83;38.89;101474.19;5075601;28;45602;-75
2023/04/11 04:12:21;;;;;;;;;1.00;1.00;;;;;22.89;39.21;101483.28;5075532;28;46292;-76
2023/04/11 04:14:47;;;;;;;;;0.00;0.00;;;;;22.89;38.64;101488.59;5056813;28;45301;-75
2023/04/11 04:17:14;;;;;;;;;2.33;0.00;;;;;22.92;38.59;101490.91;5075420;28;45298;-75
2023/04/11 04:19:40;;;;;;;;;1.33;0.00;;;;;22.91;39.07;101491.91;5075568;28;45257;-76
2023/04/11 04:22:10;;;;;;;;;0.00;0.00;;;;;22.90;38.55;101496.38;5075097;28;45440;-76
2023/04/11 04:24:40;;;;;;;;;1.00;0.00;;;;;22.90;39.22;101499.03;5075196;28;45500;-74
2023/04/11 04:27:08;;;;;;;;;4.00;0.67;;;;;22.90;38.85;101499.03;5075219;28;45415;-75
2023/04/11 04:29:37;;;;;;;;;0.00;0.00;;;;;22.90;39.11;101500.88;5074916;28;45543;-76
2023/04/11 04:32:09;;;;;;;;;0.00;0.00;;;;;22.86;38.99;101492.41;5074694;28;46986;-75
2023/04/11 04:34:45;;;;;;;;;3.67;0.00;;;;;22.87;38.65;101491.44;5056857;28;45324;-75
2023/04/11 04:37:20;;;;;;;;;2.00;0.00;;;;;22.69;38.74;101465.09;5074928;28;45367;-76
2023/04/11 04:39:49;;;;;;;;;1.67;0.00;;;;;22.90;38.51;101501.69;5075000;28;45406;-74
2023/04/11 04:42:16;;;;;;;;;3.00;0.67;;;;;22.83;38.39;101488.28;5075500;28;47019;-75
2023/04/11 04:44:41;;;;;;;;;0.00;0.00;;;;;22.81;38.31;101479.66;5078062;28;45441;-76
2023/04/11 04:47:07;;;;;;;;;0.00;0.00;;;;;22.84;38.31;101489.94;5078506;28;45391;-75
2023/04/11 04:49:32;;;;;;;;;0.00;0.00;;;;;22.94;38.24;101503.00;5078456;28;45364;-76
2023/04/11 04:51:57;;;;;;;;;0.67;0.00;;;;;22.85;38.39;101491.59;5078342;28;47015;-75
2023/04/11 04:54:23;;;;;;;;;0.00;0.00;;;;;22.66;38.38;101460.94;5078370;28;45311;-76
2023/04/11 04:56:48;;;;;;;;;2.00;1.00;;;;;22.85;38.45;101490.75;5078330;28;45504;-75
2023/04/11 04:59:15;;;;;;;;;2.67;1.00;;;;;22.96;38.38;101500.19;5078006;28;45358;-76
2023/04/11 05:01:41;;;;;;;;;0.00;0.00;;;;;22.96;38.10;101503.66;5078054;28;45320;-76
2023/04/11 05:04:06;;;;;;;;;1.00;0.00;;;;;22.91;38.73;101494.56;5077999;28;45381;-75
2023/04/11 05:06:31;;;;;;;;;0.00;0.00;;;;;22.93;38.63;101511.13;5078472;28;45295;-75
2023/04/11 05:08:59;;;;;;;;;0.00;0.00;;;;;22.98;38.37;101508.00;5078145;28;45353;-75
2023/04/11 05:11:25;;;;;;;;;1.00;0.00;;;;;22.88;38.28;101497.53;5078067;28;47043;-74
2023/04/11 05:13:51;;;;;;;;;2.00;0.00;;;;;22.98;38.24;101510.63;5077655;28;45337;-75
2023/04/11 05:16:17;;;;;;;;;0.00;0.00;;;;;22.95;38.69;101517.13;5078054;28;45460;-75
2023/04/11 05:18:43;;;;;;;;;0.00;0.00;;;;;22.92;38.62;101512.13;5078066;28;45369;-76
2023/04/11 05:21:08;;;;;;;;;0.00;0.00;;;;;22.74;38.38;101491.97;5077669;28;46398;-76
2023/04/11 05:23:34;;;;;;;;;0.00;0.00;;;;;22.52;38.22;101452.69;5077786;28;45585;-76
2023/04/11 05:26:00;;;;;;;;;0.00;0.00;;;;;22.89;38.24;101508.00;5078005;28;45505;-75
2023/04/11 05:28:25;;;;;;;;;0.33;0.33;;;;;22.99;38.43;101525.53;5077515;28;45527;-75
2023/04/11 05:30:51;;;;;;;;;0.00;0.00;;;;;22.97;38.23;101525.72;5077911;28;47071;-75
2023/04/11 05:33:16;;;;;;;;;0.00;0.00;;;;;22.95;38.62;101519.78;5077444;28;45443;-76
2023/04/11 05:35:42;;;;;;;;;0.67;0.67;;;;;22.96;38.70;101519.59;5077879;28;45434;-75
2023/04/11 05:38:08;;;;;;;;;3.00;1.00;;;;;22.95;38.62;101520.56;5077674;28;45358;-74
2023/04/11 05:40:34;;;;;;;;;0.00;0.00;;;;;22.84;38.37;101510.34;5077688;28;46564;-74
2023/04/11 05:42:59;;;;;;;;;2.33;1.67;;;;;22.94;39.01;101518.09;5076752;28;45805;-75
2023/04/11 05:45:24;;;;;;;;;1.33;0.00;;;;;22.95;39.20;101517.13;5076924;28;45361;-73
2023/04/11 05:47:50;;;;;;;;;1.67;0.00;;;;;22.95;39.25;101527.72;5069965;28;45467;-74
2023/04/11 05:50:15;;;;;;;;;0.00;0.00;;;;;22.89;38.98;101517.78;5061237;28;46073;-74
2023/04/11 05:52:40;;;;;;;;;1.00;1.00;;;;;22.95;39.09;101536.50;5074959;28;45502;-74
2023/04/11 05:55:06;;;;;;;;;0.00;0.00;;;;;22.97;39.09;101544.31;5076321;28;45286;-73
2023/04/11 05:57:32;;;;;;;;;1.00;1.00;;;;;22.95;38.78;101535.69;5059035;28;45375;-74
2023/04/11 06:00:00;;;;;;;;;1.00;0.00;;;;;22.96;39.09;101547.94;5077254;28;45785;-74
2023/04/11 06:02:26;;;;;;;;;2.00;0.00;;;;;22.99;39.25;101552.09;5076963;28;45352;-75
2023/04/11 06:04:52;;;;;;;;;1.00;0.00;;;;;22.98;39.32;101551.25;5076996;28;45316;-74
2023/04/11 06:07:17;;;;;;;;;0.00;0.00;;;;;23.00;39.18;101557.25;5077254;28;45314;-75
2023/04/11 06:09:43;;;;;;;;;0.33;0.00;;;;;22.73;38.49;101512.34;5077249;28;45373;-76
2023/04/11 06:12:09;;;;;;;;;2.00;1.00;;;;;23.03;39.10;101556.06;5065197;28;45389;-73
2023/04/11 06:14:34;;;;;;;;;2.33;0.00;;;;;23.05;38.72;101556.72;5056603;28;45343;-75
2023/04/11 06:17:00;;;;;;;;;0.00;0.00;;;;;23.11;39.13;101557.88;5056690;28;45377;-74
2023/04/11 06:19:25;;;;;;;;;1.00;0.67;;;;;23.15;38.58;101553.88;5038288;28;48399;-72
2023/04/11 06:21:50;;;;;;;;;2.00;0.00;;;;;23.23;38.84;101547.72;5056658;28;45226;-72
2023/04/11 06:24:17;;;;;;;;;0.67;0.33;;;;;23.37;38.59;101557.59;5056857;28;45553;-73
2023/04/11 06:26:42;;;;;;;;;0.00;0.00;;;;;23.25;38.28;101519.16;5056314;28;45451;-73
2023/04/11 06:29:08;;;;;;;;;0.00;0.00;;;;;23.45;38.11;101532.84;5056463;28;47121;-73
2023/04/11 06:31:33;;;;;;;;;4.00;0.00;;;;;23.67;37.86;101561.50;5060712;28;45501;-73
2023/04/11 06:34:02;;;;;;;;;2.00;0.00;;;;;23.68;37.80;101569.28;5076822;28;45414;-72
2023/04/11 06:36:28;;;;;;;;;1.00;0.67;;;;;23.68;37.82;101571.13;5076929;28;45371;-72
2023/04/11 06:38:54;;;;;;;;;0.33;0.00;;;;;23.68;37.60;101558.66;5075838;28;45483;-73
2023/04/11 06:41:19;;;;;;;;;0.67;0.67;;;;;23.72;37.66;101554.66;5076707;28;45489;-73
2023/04/11 06:43:44;;;;;;;;;0.33;0.33;;;;;23.73;37.49;101579.41;5076663;28;45399;-72
2023/04/11 06:46:10;;;;;;;;;0.33;0.33;;;;;23.69;37.50;101576.25;5076740;28;45419;-73
2023/04/11 06:48:36;;;;;;;;;0.00;0.00;;;;;23.56;37.98;101552.09;5076588;28;46165;-73
2023/04/11 06:51:01;;;;;;;;;1.00;0.00;;;;;23.62;38.13;101573.47;5076252;28;45392;-73
2023/04/11 06:53:27;;;;;;;;;0.33;0.33;;;;;23.59;37.81;101568.50;5076203;28;45398;-72
2023/04/11 06:55:52;;;;;;;;;0.00;0.00;;;;;23.25;37.86;101514.69;5076658;28;45336;-72
2023/04/11 06:58:17;;;;;;;;;1.00;0.00;;;;;23.47;37.90;101552.09;5076247;28;46247;-73
2023/04/11 07:00:43;;;;;;;;;0.00;0.00;;;;;23.43;37.91;101540.16;5076269;28;45352;-73
2023/04/11 07:03:08;;;;;;;;;1.00;0.00;;;;;23.47;38.19;101553.94;5076456;28;45349;-73
2023/04/11 07:05:36;;;;;;;;;1.00;1.00;;;;;23.38;37.63;101545.16;5075712;28;47728;-72
2023/04/11 07:08:02;;;;;;;;;0.00;0.00;;;;;23.44;37.83;101555.09;5076022;28;46295;-73
2023/04/11 07:10:27;;;;;;;;;0.00;0.00;;;;;23.49;38.06;101570.50;5074871;28;45976;-71
2023/04/11 07:12:53;;;;;;;;;1.00;1.00;;;;;23.46;38.02;101560.22;5076349;28;45313;-73
2023/04/11 07:15:18;;;;;;;;;1.00;0.33;;;;;23.45;37.74;101577.16;5076312;28;45396;-73
2023/04/11 07:17:43;;;;;;;;;2.00;1.00;;;;;23.50;37.54;101573.03;5076001;28;46153;-71
2023/04/11 07:20:10;;;;;;;;;0.33;0.33;;;;;23.50;37.83;101573.03;5076087;28;45257;-73
2023/04/11 07:22:36;;;;;;;;;0.00;0.00;;;;;23.43;38.15;101553.44;5075800;28;45272;-73
2023/04/11 07:25:04;;;;;;;;;0.00;0.00;;;;;23.48;38.26;101553.75;5076161;28;45416;-72
2023/04/11 07:27:31;;;;;;;;;0.00;0.00;;;;;23.38;37.78;101537.19;5075863;28;48152;-72
2023/04/11 07:29:57;;;;;;;;;0.67;0.00;;;;;23.47;38.09;101556.59;5075843;28;45444;-72
2023/04/11 07:32:22;;;;;;;;;0.00;0.00;;;;;23.46;37.52;101558.41;5075651;28;45424;-73
2023/04/11 07:34:48;;;;;;;;;0.00;0.00;;;;;23.39;38.05;101547.63;5076080;28;45323;-72
2023/04/11 07:37:13;;;;;;;;;2.00;0.00;;;;;23.44;37.83;101552.44;5057000;28;47352;-73
2023/04/11 07:39:39;;;;;;;;;1.33;0.00;;;;;23.44;37.88;101560.41;5076006;28;45321;-72
2023/04/11 07:42:05;;;;;;;;;2.33;1.00;;;;;23.42;38.03;101559.75;5075816;28;45314;-73
2023/04/11 07:44:31;;;;;;;;;0.00;0.00;;;;;23.45;37.92;101566.53;5075903;28;45439;-72
2023/04/11 07:46:56;;;;;;;;;0.00;0.00;;;;;23.41;38.03;101568.72;5075666;28;45959;-73
2023/04/11 07:49:22;;;;;;;;;2.00;0.00;;;;;23.37;38.08;101564.72;5075651;28;45385;-72
2023/04/11 07:51:47;;;;;;;;;0.00;0.00;;;;;23.39;37.89;101573.38;5075456;28;45375;-71
2023/04/11 07:54:12;;;;;;;;;0.67;0.67;;;;;23.39;37.31;101568.06;5075795;28;45441;-73
2023/04/11 07:56:38;;;;;;;;;0.00;0.00;;;;;23.38;37.84;101579.69;5075604;28;47038;-72
2023/04/11 07:59:03;;;;;;;;;1.00;0.00;;;;;23.36;37.54;101563.09;5075629;28;45318;-72
2023/04/11 08:01:30;;;;;;;;;0.00;0.00;;;;;23.16;37.36;101534.31;5075515;28;45265;-73
2023/04/11 08:03:55;;;;;;;;;0.00;0.00;;;;;23.35;37.61;101575.53;5075561;28;45395;-73
2023/04/11 08:06:21;;;;;;;;;0.00;0.00;;;;;23.35;38.04;101577.38;5075107;28;47101;-72
2023/04/11 08:08:47;;;;;;;;;2.00;0.00;;;;;23.28;37.79;101562.13;5075481;28;45386;-73
2023/04/11 08:11:13;;;;;;;;;1.00;1.00;;;;;23.37;37.80;101570.03;5075716;28;45346;-73
2023/04/11 08:13:38;;;;;;;;;1.67;0.67;;;;;23.38;37.65;101566.41;5057252;28;45595;-71
2023/04/11 08:16:06;;;;;;;;;3.33;1.00;;;;;23.37;37.32;101565.56;5075134;28;46097;-73
2023/04/11 08:18:32;;;;;;;;;1.00;0.33;;;;;23.32;38.00;101567.06;5078045;28;45478;-73
2023/04/11 08:20:57;;;;;;;;;0.00;0.00;;;;;23.38;37.78;101571.72;5060401;28;45517;-73
2023/04/11 08:23:23;;;;;;;;;1.00;1.00;;;;;23.35;37.80;101564.09;5078908;28;45514;-73
2023/04/11 08:25:48;;;;;;;;;1.00;1.00;;;;;23.41;37.31;101587.31;5077907;28;45391;-73
2023/04/11 08:28:14;;;;;;;;;0.67;0.67;;;;;23.41;37.50;101595.28;5078622;28;45413;-73
2023/04/11 08:30:39;;;;;;;;;0.00;0.00;;;;;23.33;37.45;101574.88;5078833;28;45476;-73
2023/04/11 08:33:06;;;;;;;;;0.00;0.00;;;;;23.42;37.68;101598.75;5078445;28;45357;-73
2023/04/11 08:35:31;;;;;;;;;1.00;1.00;;;;;23.41;37.91;101589.97;5078335;28;46915;-73
2023/04/11 08:37:56;;;;;;;;;1.67;0.00;;;;;23.43;37.67;101598.59;5078642;27;45298;-72
2023/04/11 08:40:22;;;;;;;;;1.00;0.33;;;;;23.43;37.89;101589.78;5078432;28;45446;-73
2023/04/11 08:42:48;;;;;;;;;0.00;0.00;;;;;23.42;37.90;101578.31;5078645;28;45388;-74
2023/04/11 08:45:13;;;;;;;;;0.00;0.00;;;;;23.32;37.44;101562.59;5078361;28;46395;-73
2023/04/11 08:47:40;;;;;;;;;1.33;0.00;;;;;23.42;37.93;101580.19;5078413;28;45347;-73
2023/04/11 08:50:06;;;;;;;;;1.67;0.00;;;;;23.40;37.71;101567.06;5078165;28;45345;-73
2023/04/11 08:52:32;;;;;;;;;3.00;0.00;;;;;23.40;37.44;101573.19;5078465;28;45308;-72
2023/04/11 08:54:58;;;;;;;;;2.33;0.00;;;;;23.38;37.31;101577.84;5078181;28;46222;-72
2023/04/11 08:57:26;;;;;;;;;0.00;0.00;;;;;23.41;37.53;101582.00;5078350;28;45303;-73
2023/04/11 08:59:53;;;;;;;;;0.67;0.67;;;;;23.41;37.63;101584.66;5078484;28;45407;-73
2023/04/11 09:02:19;;;;;;;;;3.00;0.33;;;;;23.25;37.83;101551.84;5078148;28;45277;-73
2023/04/11 09:04:46;;;;;;;;;0.33;0.33;;;;;23.41;37.22;101587.31;5077524;28;47244;-72
2023/04/11 09:07:11;;;;;;;;;0.00;0.00;;;;;23.39;37.42;101581.34;5078276;28;45420;-72
2023/04/11 09:09:38;;;;;;;;;0.00;0.00;;;;;23.35;37.88;101580.00;5078385;28;45340;-73
2023/04/11 09:12:04;;;;;;;;;0.00;0.00;;;;;23.42;37.47;101593.47;5078220;28;45482;-73
2023/04/11 09:14:30;;;;;;;;;0.00;0.00;;;;;23.39;37.77;101589.31;5077814;28;45508;-72
2023/04/11 09:16:59;;;;;;;;;0.00;0.00;;;;;23.43;37.25;101598.59;5077851;28;45368;-73
2023/04/11 09:19:30;;;;;;;;;0.33;0.00;;;;;23.38;37.54;101582.34;5077979;28;45413;-72
2023/04/11 09:22:00;;;;;;;;;0.00;0.00;;;;;23.32;37.33;101567.91;5077840;28;45459;-73
2023/04/11 09:24:26;;;;;;;;;1.00;1.00;;;;;23.39;37.48;101573.38;5077693;28;46312;-73
2023/04/11 09:27:14;;;;;;;;;0.00;0.00;;;;;23.40;37.71;101575.03;5076758;28;45499;-73
2023/04/11 09:29:47;;;;;;;;;0.00;0.00;;;;;23.38;37.33;101577.03;5077672;28;45538;-73
2023/04/11 09:32:25;;;;;;;;;0.00;0.00;;;;;23.38;37.67;101569.06;5077372;27;45320;-73
2023/04/11 09:35:06;;;;;;;;;0.00;0.00;;;;;23.38;37.77;101574.38;5077193;28;46228;-73
2023/04/11 09:37:57;;;;;;;;;0.00;0.00;;;;;23.37;37.12;101570.03;5077365;28;45298;-72
2023/04/11 09:40:30;;;;;;;;;0.00;0.00;;;;;23.32;37.52;101559.94;5077543;28;45269;-73
2023/04/11 09:42:59;;;;;;;;;0.00;0.00;;;;;23.36;37.51;101561.28;5077599;28;45426;-72
2023/04/11 09:45:25;;;;;;;;;1.00;0.00;;;;;23.35;37.64;101569.41;5077313;28;46086;-73
2023/04/11 09:47:54;;;;;;;;;2.00;1.00;;;;;23.28;37.15;101553.34;5077241;28;45348;-73
2023/04/11 09:50:19;;;;;;;;;0.33;0.00;;;;;23.37;37.69;101567.38;5059789;28;45444;-72
2023/04/11 09:52:45;;;;;;;;;0.00;0.00;;;;;23.37;37.62;101564.72;5077338;28;45396;-73
2023/04/11 09:55:13;;;;;;;;;0.00;0.00;;;;;23.38;37.17;101547.81;5077366;28;46331;-73
2023/04/11 09:57:45;;;;;;;;;0.00;0.00;;;;;23.37;37.06;101541.66;5077211;28;45325;-72
2023/04/11 10:00:17;;;;;;;;;0.67;0.33;;;;;23.37;37.23;101538.19;5077395;28;45347;-73
2023/04/11 10:02:43;;;;;;;;;3.33;1.00;;;;;23.30;37.55;101527.44;5076841;28;45466;-72
2023/04/11 10:05:09;;;;;;;;;1.00;0.33;;;;;23.32;37.36;101530.75;5077035;28;46250;-73
2023/04/11 10:08:04;;;;;;;;;0.00;0.00;;;;;23.41;37.33;101542.16;5077137;28;45518;-73
2023/04/11 10:10:29;;;;;;;;;0.00;0.00;;;;;23.33;37.47;101527.09;5077470;28;45372;-73
2023/04/11 10:12:54;;;;;;;;;0.00;0.00;;;;;23.42;36.96;101540.34;5077229;28;45491;-73
2023/04/11 10:15:21;;;;;;;;;0.00;0.00;;;;;23.43;37.12;101550.78;5076998;28;47059;-73
2023/04/11 10:18:15;;;;;;;;;0.33;0.00;;;;;23.44;37.50;101538.34;5076707;28;45348;-72
2023/04/11 10:20:42;;;;;;;;;1.67;1.00;;;;;23.44;37.27;101538.34;4994491;28;45319;-73
2023/04/11 10:23:09;;;;;;;;;0.00;0.00;;;;;23.38;37.42;101531.88;4994813;28;45392;-73
2023/04/11 10:25:54;;;;;;;;;0.00;0.00;;;;;23.45;37.00;101545.28;4996792;28;46188;-72
2023/04/11 10:28:38;;;;;;;;;0.00;0.00;;;;;23.44;37.26;101539.16;5014173;28;45405;-73
2023/04/11 10:31:11;;;;;;;;;2.00;0.00;;;;;23.44;37.08;101541.81;5013870;28;45418;-72
2023/04/11 10:33:38;;;;;;;;;0.33;0.33;;;;;23.45;37.06;101537.31;5013878;28;45488;-73
2023/04/11 10:36:05;;;;;;;;;0.33;0.33;;;;;23.45;37.12;101518.72;5014252;28;45318;-73
2023/04/11 10:38:42;;;;;;;;;0.00;0.00;;;;;23.45;37.05;101518.72;5013977;28;45307;-73
2023/04/11 10:41:15;;;;;;;;;1.00;0.00;;;;;23.45;37.20;101510.75;5013489;28;45361;-73
2023/04/11 10:43:40;;;;;;;;;0.67;0.00;;;;;23.39;36.87;101496.38;5014096;28;45579;-72
2023/04/11 10:46:19;;;;;;;;;0.00;0.00;;;;;23.44;37.30;101494.03;5013708;28;46151;-72
2023/04/11 10:48:56;;;;;;;;;0.00;0.00;;;;;23.43;36.87;101500.31;5014000;28;45432;-73
2023/04/11 10:51:26;;;;;;;;;1.00;0.00;;;;;23.38;37.03;101484.09;5013892;28;45477;-73
2023/04/11 10:53:52;;;;;;;;;0.00;0.00;;;;;23.40;37.17;101495.34;5014042;28;45434;-73
2023/04/11 10:56:45;;;;;;;;;0.00;0.00;;;;;23.43;37.57;101496.84;5020864;28;45394;-72
2023/04/11 10:59:29;;;;;;;;;0.00;0.00;;;;;23.44;36.69;101494.03;5056048;28;45290;-72
2023/04/11 11:01:55;;;;;;;;;0.00;0.00;;;;;23.44;37.28;101504.66;5055877;28;45328;-72
2023/04/11 11:04:30;;;;;;;;;3.33;1.00;;;;;23.32;37.00;101474.16;5055822;28;45555;-72
2023/04/11 11:06:57;;;;;;;;;0.00;0.00;;;;;23.42;37.10;101496.00;5056011;28;46330;-72
2023/04/11 11:09:22;;;;;;;;;0.00;0.00;;;;;23.41;36.87;101483.75;5055853;28;45282;-72
2023/04/11 11:12:06;;;;;;;;;1.00;1.00;;;;;23.44;37.12;101493.19;5056000;28;45594;-72
2023/04/11 11:14:32;;;;;;;;;0.00;0.00;;;;;23.44;36.94;101483.41;5055799;28;45352;-72
2023/04/11 11:16:58;;;;;;;;;0.00;0.00;;;;;23.45;36.70;101479.72;5055613;28;45849;-72
2023/04/11 11:19:23;;;;;;;;;0.00;0.00;;;;;23.46;37.14;101485.88;5055889;28;45492;-72
2023/04/11 11:21:50;;;;;;;;;1.00;1.00;;;;;23.46;36.77;101477.91;5056019;28;45399;-72
2023/04/11 11:24:23;;;;;;;;;0.00;0.00;;;;;23.33;36.85;101458.06;5055889;28;45397;-72